Terminal Aerodrome Forecast
Issued by NWS

Home | Current Version | Previous Version | Graphics & Text | Print | Product List | Glossary On
Versions: 1 2 3 4 5 6 7 8 9 10 11 12 13 14 15 16 17 18 19 20 21
000
FTUS43 KLSX 151100
TAFSUS
TAF
KSUS 151120Z 1512/1612 15008KT 4SM -RA OVC025
      TEMPO 1512/1513 2SM RA OVC009
     FM151500 15015KT P6SM BKN015
     FM151800 15015KT P6SM VCSH BKN025
     FM160200 25015KT P6SM OVC025
     FM160900 29014G22KT P6SM OVC015=

USA.gov is the U.S. government's official web portal to all federal, state and local government web resources and services.